sensor_id;sensor_type;location;lat;lon;timestamp;noise_LAeq;noise_LA_min;noise_LA_max;noise_LA01;noise_LA95
73638;Laerm;53743;51.100;5.874;2022-08-19T00:00:21;33.87;30.07;40.10;;
73638;Laerm;53743;51.100;5.874;2022-08-19T00:01:22;33.17;30.01;37.59;;
73638;Laerm;53743;51.100;5.874;2022-08-19T00:02:23;33.67;30.80;38.06;;
73638;Laerm;53743;51.100;5.874;2022-08-19T00:03:24;34.60;30.95;38.44;;
73638;Laerm;53743;51.100;5.874;2022-08-19T00:04:31;33.56;30.81;38.43;;
73638;Laerm;53743;51.100;5.874;2022-08-19T00:05:33;33.48;30.68;38.01;;
73638;Laerm;53743;51.100;5.874;2022-08-19T00:06:39;35.56;30.84;52.02;;
73638;Laerm;53743;51.100;5.874;2022-08-19T00:07:42;33.87;31.53;38.01;;
73638;Laerm;53743;51.100;5.874;2022-08-19T00:08:43;34.78;31.30;39.40;;
73638;Laerm;53743;51.100;5.874;2022-08-19T00:09:45;33.86;31.26;38.72;;
73638;Laerm;53743;51.100;5.874;2022-08-19T00:10:46;34.54;31.14;39.59;;
73638;Laerm;53743;51.100;5.874;2022-08-19T00:11:48;35.04;32.07;41.83;;
73638;Laerm;53743;51.100;5.874;2022-08-19T00:12:50;33.01;30.48;37.70;;
73638;Laerm;53743;51.100;5.874;2022-08-19T00:13:51;36.14;29.83;56.51;;
73638;Laerm;53743;51.100;5.874;2022-08-19T00:14:52;62.11;29.13;79.64;;
73638;Laerm;53743;51.100;5.874;2022-08-19T00:15:55;43.55;30.20;59.73;;
73638;Laerm;53743;51.100;5.874;2022-08-19T00:16:56;32.79;30.13;42.62;;
73638;Laerm;53743;51.100;5.874;2022-08-19T00:17:57;33.54;30.43;37.49;;
73638;Laerm;53743;51.100;5.874;2022-08-19T00:18:59;33.93;30.71;37.75;;
73638;Laerm;53743;51.100;5.874;2022-08-19T00:19:59;33.23;30.99;36.59;;
73638;Laerm;53743;51.100;5.874;2022-08-19T00:21:01;33.07;30.32;37.60;;
73638;Laerm;53743;51.100;5.874;2022-08-19T00:22:02;33.05;29.90;37.04;;
73638;Laerm;53743;51.100;5.874;2022-08-19T00:23:03;61.14;30.81;78.59;;
73638;Laerm;53743;51.100;5.874;2022-08-19T00:24:10;33.04;30.48;39.15;;
73638;Laerm;53743;51.100;5.874;2022-08-19T00:25:11;32.55;29.84;37.55;;
73638;Laerm;53743;51.100;5.874;2022-08-19T00:26:13;34.22;29.10;47.23;;
73638;Laerm;53743;51.100;5.874;2022-08-19T00:27:14;53.80;30.11;72.61;;
73638;Laerm;53743;51.100;5.874;2022-08-19T00:28:15;35.50;30.51;48.06;;
73638;Laerm;53743;51.100;5.874;2022-08-19T00:29:20;63.25;30.43;80.77;;
73638;Laerm;53743;51.100;5.874;2022-08-19T00:30:21;32.14;29.64;37.10;;
73638;Laerm;53743;51.100;5.874;2022-08-19T00:31:22;55.63;30.89;70.38;;
73638;Laerm;53743;51.100;5.874;2022-08-19T00:32:22;32.69;29.85;38.01;;
73638;Laerm;53743;51.100;5.874;2022-08-19T00:33:23;32.36;29.51;45.41;;
73638;Laerm;53743;51.100;5.874;2022-08-19T00:34:24;32.22;29.44;38.15;;
73638;Laerm;53743;51.100;5.874;2022-08-19T00:35:28;33.18;30.34;37.00;;
73638;Laerm;53743;51.100;5.874;2022-08-19T00:36:30;31.99;29.76;35.32;;
73638;Laerm;53743;51.100;5.874;2022-08-19T00:37:32;32.29;29.95;45.31;;
73638;Laerm;53743;51.100;5.874;2022-08-19T00:38:35;55.92;30.76;71.18;;
73638;Laerm;53743;51.100;5.874;2022-08-19T00:39:36;37.78;29.59;50.11;;
73638;Laerm;53743;51.100;5.874;2022-08-19T00:40:38;31.45;29.04;35.76;;
73638;Laerm;53743;51.100;5.874;2022-08-19T00:41:40;31.81;29.13;35.59;;
73638;Laerm;53743;51.100;5.874;2022-08-19T00:42:41;32.22;29.78;45.64;;
73638;Laerm;53743;51.100;5.874;2022-08-19T00:43:42;32.82;29.89;37.48;;
73638;Laerm;53743;51.100;5.874;2022-08-19T00:44:42;57.75;30.04;73.14;;
73638;Laerm;53743;51.100;5.874;2022-08-19T00:45:43;41.48;30.78;52.20;;
73638;Laerm;53743;51.100;5.874;2022-08-19T00:46:47;31.05;29.10;33.48;;
73638;Laerm;53743;51.100;5.874;2022-08-19T00:47:48;31.92;28.67;35.80;;
73638;Laerm;53743;51.100;5.874;2022-08-19T00:48:49;36.95;29.63;49.29;;
73638;Laerm;53743;51.100;5.874;2022-08-19T00:49:55;54.01;30.71;68.29;;
73638;Laerm;53743;51.100;5.874;2022-08-19T00:50:58;33.04;30.86;35.29;;
73638;Laerm;53743;51.100;5.874;2022-08-19T00:52:11;32.64;30.22;35.80;;
73638;Laerm;53743;51.100;5.874;2022-08-19T00:53:18;32.55;29.43;50.02;;
73638;Laerm;53743;51.100;5.874;2022-08-19T00:54:20;31.93;29.34;44.23;;
73638;Laerm;53743;51.100;5.874;2022-08-19T00:55:26;53.30;29.57;68.93;;
73638;Laerm;53743;51.100;5.874;2022-08-19T00:56:30;52.99;30.18;69.76;;
73638;Laerm;53743;51.100;5.874;2022-08-19T00:57:38;32.02;29.77;34.70;;
73638;Laerm;53743;51.100;5.874;2022-08-19T00:58:40;32.82;30.64;36.68;;
73638;Laerm;53743;51.100;5.874;2022-08-19T00:59:46;33.71;31.10;38.21;;
73638;Laerm;53743;51.100;5.874;2022-08-19T01:00:48;34.81;31.74;41.06;;
73638;Laerm;53743;51.100;5.874;2022-08-19T01:01:49;34.74;31.82;39.31;;
73638;Laerm;53743;51.100;5.874;2022-08-19T01:02:50;34.04;30.47;42.11;;
73638;Laerm;53743;51.100;5.874;2022-08-19T01:03:52;55.45;31.46;72.31;;
73638;Laerm;53743;51.100;5.874;2022-08-19T01:04:53;34.30;29.24;43.37;;
73638;Laerm;53743;51.100;5.874;2022-08-19T01:05:55;31.84;29.49;35.86;;
73638;Laerm;53743;51.100;5.874;2022-08-19T01:06:58;32.09;30.03;34.41;;
73638;Laerm;53743;51.100;5.874;2022-08-19T01:08:04;31.62;29.56;35.02;;
73638;Laerm;53743;51.100;5.874;2022-08-19T01:09:05;31.83;30.07;37.10;;
73638;Laerm;53743;51.100;5.874;2022-08-19T01:10:12;32.17;29.47;35.78;;
73638;Laerm;53743;51.100;5.874;2022-08-19T01:11:14;34.19;30.88;38.01;;
73638;Laerm;53743;51.100;5.874;2022-08-19T01:12:16;34.17;31.22;37.79;;
73638;Laerm;53743;51.100;5.874;2022-08-19T01:13:25;33.93;31.77;37.17;;
73638;Laerm;53743;51.100;5.874;2022-08-19T01:14:26;33.86;30.39;38.32;;
73638;Laerm;53743;51.100;5.874;2022-08-19T01:15:33;32.88;29.78;42.39;;
73638;Laerm;53743;51.100;5.874;2022-08-19T01:16:39;33.57;31.12;37.60;;
73638;Laerm;53743;51.100;5.874;2022-08-19T01:17:42;33.64;30.47;36.67;;
73638;Laerm;53743;51.100;5.874;2022-08-19T01:18:43;34.71;31.77;41.37;;
73638;Laerm;53743;51.100;5.874;2022-08-19T01:19:46;34.92;32.18;38.39;;
73638;Laerm;53743;51.100;5.874;2022-08-19T01:20:48;35.02;32.36;43.52;;
73638;Laerm;53743;51.100;5.874;2022-08-19T01:23:28;37.70;33.82;41.36;;
73638;Laerm;53743;51.100;5.874;2022-08-19T01:24:43;44.52;33.82;61.83;;
73638;Laerm;53743;51.100;5.874;2022-08-19T01:25:51;56.85;33.41;72.00;;
73638;Laerm;53743;51.100;5.874;2022-08-19T01:26:52;37.61;32.78;44.44;;
73638;Laerm;53743;51.100;5.874;2022-08-19T01:27:54;39.07;33.18;48.36;;
73638;Laerm;53743;51.100;5.874;2022-08-19T01:28:58;34.75;31.48;37.90;;
73638;Laerm;53743;51.100;5.874;2022-08-19T01:29:59;34.04;31.35;40.45;;
73638;Laerm;53743;51.100;5.874;2022-08-19T01:31:00;33.72;31.40;36.56;;
73638;Laerm;53743;51.100;5.874;2022-08-19T01:32:01;33.52;31.33;37.41;;
73638;Laerm;53743;51.100;5.874;2022-08-19T01:33:02;33.84;31.69;38.90;;
73638;Laerm;53743;51.100;5.874;2022-08-19T01:34:07;34.74;32.08;37.32;;
73638;Laerm;53743;51.100;5.874;2022-08-19T01:35:11;34.80;32.23;39.90;;
73638;Laerm;53743;51.100;5.874;2022-08-19T01:36:27;55.01;32.61;73.83;;
73638;Laerm;53743;51.100;5.874;2022-08-19T01:37:29;36.17;32.08;44.46;;
73638;Laerm;53743;51.100;5.874;2022-08-19T01:38:30;34.53;31.74;37.61;;
73638;Laerm;53743;51.100;5.874;2022-08-19T01:39:31;35.40;32.68;39.75;;
73638;Laerm;53743;51.100;5.874;2022-08-19T01:40:36;34.78;31.34;38.18;;
73638;Laerm;53743;51.100;5.874;2022-08-19T01:41:38;53.74;31.85;68.37;;
73638;Laerm;53743;51.100;5.874;2022-08-19T01:42:39;43.08;33.60;55.26;;
73638;Laerm;53743;51.100;5.874;2022-08-19T01:43:40;35.72;33.03;39.26;;
73638;Laerm;53743;51.100;5.874;2022-08-19T01:44:41;36.20;32.01;46.23;;
73638;Laerm;53743;51.100;5.874;2022-08-19T01:45:42;52.63;31.53;66.88;;
73638;Laerm;53743;51.100;5.874;2022-08-19T01:46:43;56.44;31.27;77.08;;
73638;Laerm;53743;51.100;5.874;2022-08-19T01:47:44;60.65;29.95;78.72;;
73638;Laerm;53743;51.100;5.874;2022-08-19T01:48:46;37.97;29.73;48.25;;
73638;Laerm;53743;51.100;5.874;2022-08-19T01:49:47;52.16;30.53;65.38;;
73638;Laerm;53743;51.100;5.874;2022-08-19T01:50:48;33.55;30.94;36.83;;
73638;Laerm;53743;51.100;5.874;2022-08-19T01:51:53;34.17;31.44;40.09;;
73638;Laerm;53743;51.100;5.874;2022-08-19T01:52:54;35.08;32.42;37.28;;
73638;Laerm;53743;51.100;5.874;2022-08-19T01:53:54;33.54;30.55;41.57;;
73638;Laerm;53743;51.100;5.874;2022-08-19T01:54:55;56.14;33.33;70.47;;
73638;Laerm;53743;51.100;5.874;2022-08-19T01:55:56;34.64;31.48;41.06;;
73638;Laerm;53743;51.100;5.874;2022-08-19T01:57:08;34.02;31.43;37.34;;
73638;Laerm;53743;51.100;5.874;2022-08-19T01:58:30;52.83;32.92;67.46;;
73638;Laerm;53743;51.100;5.874;2022-08-19T01:59:33;35.00;31.34;39.62;;
73638;Laerm;53743;51.100;5.874;2022-08-19T02:00:36;35.38;31.43;42.77;;
73638;Laerm;53743;51.100;5.874;2022-08-19T02:01:37;34.38;30.99;39.61;;
73638;Laerm;53743;51.100;5.874;2022-08-19T02:02:38;35.37;31.37;44.94;;
73638;Laerm;53743;51.100;5.874;2022-08-19T02:03:40;34.45;31.44;38.92;;
73638;Laerm;53743;51.100;5.874;2022-08-19T02:04:40;34.47;31.87;37.87;;
73638;Laerm;53743;51.100;5.874;2022-08-19T02:05:43;34.20;31.50;37.93;;
73638;Laerm;53743;51.100;5.874;2022-08-19T02:06:44;34.21;31.66;39.23;;
73638;Laerm;53743;51.100;5.874;2022-08-19T02:07:44;57.47;31.99;73.55;;
73638;Laerm;53743;51.100;5.874;2022-08-19T02:08:45;43.65;30.94;60.10;;
73638;Laerm;53743;51.100;5.874;2022-08-19T02:09:46;33.55;30.66;38.71;;
73638;Laerm;53743;51.100;5.874;2022-08-19T02:10:48;33.61;30.84;41.86;;
73638;Laerm;53743;51.100;5.874;2022-08-19T02:11:50;53.63;31.19;66.59;;
73638;Laerm;53743;51.100;5.874;2022-08-19T02:12:51;33.40;30.32;38.38;;
73638;Laerm;53743;51.100;5.874;2022-08-19T02:13:53;32.79;30.09;37.35;;
73638;Laerm;53743;51.100;5.874;2022-08-19T02:14:54;32.04;29.90;35.65;;
73638;Laerm;53743;51.100;5.874;2022-08-19T02:15:55;55.74;29.58;70.77;;
73638;Laerm;53743;51.100;5.874;2022-08-19T02:16:56;32.45;29.78;35.16;;
73638;Laerm;53743;51.100;5.874;2022-08-19T02:17:56;32.08;30.29;35.17;;
73638;Laerm;53743;51.100;5.874;2022-08-19T02:18:58;35.23;32.05;39.92;;
73638;Laerm;53743;51.100;5.874;2022-08-19T02:20:00;34.90;31.94;47.64;;
73638;Laerm;53743;51.100;5.874;2022-08-19T02:21:01;34.68;31.81;38.28;;
73638;Laerm;53743;51.100;5.874;2022-08-19T02:22:02;34.79;31.66;38.83;;
73638;Laerm;53743;51.100;5.874;2022-08-19T02:23:05;35.87;32.88;40.07;;
73638;Laerm;53743;51.100;5.874;2022-08-19T02:24:06;37.54;32.19;48.81;;
73638;Laerm;53743;51.100;5.874;2022-08-19T02:25:09;34.01;31.40;36.52;;
73638;Laerm;53743;51.100;5.874;2022-08-19T02:26:11;34.50;31.00;41.72;;
73638;Laerm;53743;51.100;5.874;2022-08-19T02:27:12;34.17;31.46;39.22;;
73638;Laerm;53743;51.100;5.874;2022-08-19T02:28:13;33.58;31.09;36.35;;
73638;Laerm;53743;51.100;5.874;2022-08-19T02:29:14;34.75;31.21;45.63;;
73638;Laerm;53743;51.100;5.874;2022-08-19T02:30:17;54.41;32.79;68.79;;
73638;Laerm;53743;51.100;5.874;2022-08-19T02:31:21;35.98;32.27;40.92;;
73638;Laerm;53743;51.100;5.874;2022-08-19T02:32:22;57.12;34.24;75.63;;
73638;Laerm;53743;51.100;5.874;2022-08-19T02:33:23;37.28;33.33;47.03;;
73638;Laerm;53743;51.100;5.874;2022-08-19T02:34:24;56.26;34.42;70.25;;
73638;Laerm;53743;51.100;5.874;2022-08-19T02:35:25;35.42;31.97;39.93;;
73638;Laerm;53743;51.100;5.874;2022-08-19T02:36:26;35.47;32.77;39.02;;
73638;Laerm;53743;51.100;5.874;2022-08-19T02:37:28;53.30;33.79;70.67;;
73638;Laerm;53743;51.100;5.874;2022-08-19T02:38:48;60.54;32.90;76.20;;
73638;Laerm;53743;51.100;5.874;2022-08-19T02:39:48;42.96;33.76;57.86;;
73638;Laerm;53743;51.100;5.874;2022-08-19T02:40:53;34.46;31.28;38.74;;
73638;Laerm;53743;51.100;5.874;2022-08-19T02:41:54;34.96;32.01;38.91;;
73638;Laerm;53743;51.100;5.874;2022-08-19T02:42:55;35.80;32.79;40.84;;
73638;Laerm;53743;51.100;5.874;2022-08-19T02:43:59;35.05;32.15;42.51;;
73638;Laerm;53743;51.100;5.874;2022-08-19T02:45:00;33.32;30.97;37.78;;
73638;Laerm;53743;51.100;5.874;2022-08-19T02:46:15;34.96;31.21;42.29;;
73638;Laerm;53743;51.100;5.874;2022-08-19T02:47:18;34.17;31.21;39.80;;
73638;Laerm;53743;51.100;5.874;2022-08-19T02:48:22;33.96;31.63;38.23;;
73638;Laerm;53743;51.100;5.874;2022-08-19T02:49:23;35.09;31.27;41.04;;
73638;Laerm;53743;51.100;5.874;2022-08-19T02:50:24;34.42;32.16;38.36;;
73638;Laerm;53743;51.100;5.874;2022-08-19T02:51:36;34.26;31.48;37.91;;
73638;Laerm;53743;51.100;5.874;2022-08-19T02:52:37;35.17;31.25;40.85;;
73638;Laerm;53743;51.100;5.874;2022-08-19T02:53:38;34.43;31.70;40.26;;
73638;Laerm;53743;51.100;5.874;2022-08-19T02:54:38;57.08;31.85;70.88;;
73638;Laerm;53743;51.100;5.874;2022-08-19T02:55:47;34.51;31.31;42.45;;
73638;Laerm;53743;51.100;5.874;2022-08-19T02:56:47;33.96;31.00;39.25;;
73638;Laerm;53743;51.100;5.874;2022-08-19T02:57:48;32.93;30.63;35.82;;
73638;Laerm;53743;51.100;5.874;2022-08-19T02:58:49;33.69;31.05;39.50;;
73638;Laerm;53743;51.100;5.874;2022-08-19T02:59:50;33.03;30.51;37.62;;
73638;Laerm;53743;51.100;5.874;2022-08-19T03:00:55;58.74;31.42;74.17;;
73638;Laerm;53743;51.100;5.874;2022-08-19T03:01:56;33.18;31.11;39.13;;
73638;Laerm;53743;51.100;5.874;2022-08-19T03:02:57;33.09;30.63;36.28;;
73638;Laerm;53743;51.100;5.874;2022-08-19T03:04:03;32.73;30.02;35.49;;
73638;Laerm;53743;51.100;5.874;2022-08-19T03:05:06;58.34;31.72;72.92;;
73638;Laerm;53743;51.100;5.874;2022-08-19T03:06:14;33.95;31.51;45.67;;
73638;Laerm;53743;51.100;5.874;2022-08-19T03:07:16;54.40;30.68;70.70;;
73638;Laerm;53743;51.100;5.874;2022-08-19T03:08:17;34.36;31.87;37.88;;
73638;Laerm;53743;51.100;5.874;2022-08-19T03:09:19;33.37;30.84;37.03;;
73638;Laerm;53743;51.100;5.874;2022-08-19T03:10:20;34.55;31.61;37.33;;
73638;Laerm;53743;51.100;5.874;2022-08-19T03:11:31;34.73;32.07;37.79;;
73638;Laerm;53743;51.100;5.874;2022-08-19T03:12:36;36.34;31.27;47.60;;
73638;Laerm;53743;51.100;5.874;2022-08-19T03:13:38;51.48;32.64;65.02;;
73638;Laerm;53743;51.100;5.874;2022-08-19T03:14:38;54.59;33.56;70.78;;
73638;Laerm;53743;51.100;5.874;2022-08-19T03:15:46;57.15;33.89;71.47;;
73638;Laerm;53743;51.100;5.874;2022-08-19T03:16:51;41.47;33.75;58.01;;
73638;Laerm;53743;51.100;5.874;2022-08-19T03:17:52;57.14;33.69;77.17;;
73638;Laerm;53743;51.100;5.874;2022-08-19T03:18:56;60.53;34.26;73.63;;
73638;Laerm;53743;51.100;5.874;2022-08-19T03:20:01;36.44;33.38;40.23;;
73638;Laerm;53743;51.100;5.874;2022-08-19T03:21:03;36.80;34.23;40.27;;
73638;Laerm;53743;51.100;5.874;2022-08-19T03:22:04;54.43;34.73;73.21;;
73638;Laerm;53743;51.100;5.874;2022-08-19T03:23:05;37.19;33.93;42.15;;
73638;Laerm;53743;51.100;5.874;2022-08-19T03:24:08;38.29;33.69;47.77;;
73638;Laerm;53743;51.100;5.874;2022-08-19T03:25:09;63.55;38.83;76.14;;
73638;Laerm;53743;51.100;5.874;2022-08-19T03:26:10;59.00;35.87;75.24;;
73638;Laerm;53743;51.100;5.874;2022-08-19T03:27:10;64.76;35.92;78.24;;
73638;Laerm;53743;51.100;5.874;2022-08-19T03:28:14;55.65;33.65;70.60;;
73638;Laerm;53743;51.100;5.874;2022-08-19T03:29:16;36.68;32.76;43.97;;
73638;Laerm;53743;51.100;5.874;2022-08-19T03:30:17;59.52;35.71;75.23;;
73638;Laerm;53743;51.100;5.874;2022-08-19T03:31:21;36.04;33.32;39.36;;
73638;Laerm;53743;51.100;5.874;2022-08-19T03:32:25;36.61;33.74;40.06;;
73638;Laerm;53743;51.100;5.874;2022-08-19T03:33:27;54.65;34.78;68.54;;
73638;Laerm;53743;51.100;5.874;2022-08-19T03:34:33;37.13;34.32;40.69;;
73638;Laerm;53743;51.100;5.874;2022-08-19T03:35:35;36.77;33.88;40.52;;
73638;Laerm;53743;51.100;5.874;2022-08-19T03:36:39;37.25;33.97;41.66;;
73638;Laerm;53743;51.100;5.874;2022-08-19T03:37:40;56.95;33.58;75.68;;
73638;Laerm;53743;51.100;5.874;2022-08-19T03:38:47;36.57;33.63;41.44;;
73638;Laerm;53743;51.100;5.874;2022-08-19T03:39:48;37.73;34.21;45.27;;
73638;Laerm;53743;51.100;5.874;2022-08-19T03:40:49;59.61;36.30;71.51;;
73638;Laerm;53743;51.100;5.874;2022-08-19T03:41:52;39.50;33.94;50.91;;
73638;Laerm;53743;51.100;5.874;2022-08-19T03:42:53;36.95;33.52;42.86;;
73638;Laerm;53743;51.100;5.874;2022-08-19T03:43:54;37.36;33.91;46.67;;
73638;Laerm;53743;51.100;5.874;2022-08-19T03:44:55;59.60;36.22;74.90;;
73638;Laerm;53743;51.100;5.874;2022-08-19T03:46:05;52.78;34.15;67.69;;
73638;Laerm;53743;51.100;5.874;2022-08-19T03:47:06;37.38;33.65;44.16;;
73638;Laerm;53743;51.100;5.874;2022-08-19T03:48:07;61.59;37.04;74.44;;
73638;Laerm;53743;51.100;5.874;2022-08-19T03:49:08;42.99;33.35;57.62;;
73638;Laerm;53743;51.100;5.874;2022-08-19T03:50:09;35.77;33.06;39.37;;
73638;Laerm;53743;51.100;5.874;2022-08-19T03:51:24;36.34;34.04;39.15;;
73638;Laerm;53743;51.100;5.874;2022-08-19T03:52:25;41.77;34.12;52.20;;
73638;Laerm;53743;51.100;5.874;2022-08-19T03:53:28;36.35;33.83;41.13;;
73638;Laerm;53743;51.100;5.874;2022-08-19T03:54:30;35.58;32.78;42.87;;
73638;Laerm;53743;51.100;5.874;2022-08-19T03:55:30;54.92;33.37;68.93;;
73638;Laerm;53743;51.100;5.874;2022-08-19T03:56:35;57.48;33.49;72.22;;
73638;Laerm;53743;51.100;5.874;2022-08-19T03:57:35;35.43;32.65;40.57;;
73638;Laerm;53743;51.100;5.874;2022-08-19T03:58:36;35.78;33.46;39.29;;
73638;Laerm;53743;51.100;5.874;2022-08-19T03:59:39;55.27;32.99;70.65;;
73638;Laerm;53743;51.100;5.874;2022-08-19T04:00:42;58.76;34.93;72.07;;
73638;Laerm;53743;51.100;5.874;2022-08-19T04:01:43;57.43;35.91;69.44;;
73638;Laerm;53743;51.100;5.874;2022-08-19T04:02:44;56.03;35.55;69.77;;
73638;Laerm;53743;51.100;5.874;2022-08-19T04:03:45;63.26;37.51;76.69;;
73638;Laerm;53743;51.100;5.874;2022-08-19T04:04:46;46.96;33.77;64.44;;
73638;Laerm;53743;51.100;5.874;2022-08-19T04:05:47;57.14;33.97;69.34;;
73638;Laerm;53743;51.100;5.874;2022-08-19T04:06:48;55.64;34.95;73.01;;
73638;Laerm;53743;51.100;5.874;2022-08-19T04:07:51;36.69;33.50;42.82;;
73638;Laerm;53743;51.100;5.874;2022-08-19T04:08:54;54.17;33.68;68.88;;
73638;Laerm;53743;51.100;5.874;2022-08-19T04:09:55;35.60;33.02;45.01;;
73638;Laerm;53743;51.100;5.874;2022-08-19T04:10:56;35.14;32.71;38.66;;
73638;Laerm;53743;51.100;5.874;2022-08-19T04:11:58;54.92;33.14;72.21;;
73638;Laerm;53743;51.100;5.874;2022-08-19T04:12:58;51.46;34.59;69.70;;
73638;Laerm;53743;51.100;5.874;2022-08-19T04:14:00;55.59;33.52;71.83;;
73638;Laerm;53743;51.100;5.874;2022-08-19T04:15:01;57.91;33.50;74.29;;
73638;Laerm;53743;51.100;5.874;2022-08-19T04:16:02;57.34;33.19;77.35;;
73638;Laerm;53743;51.100;5.874;2022-08-19T04:17:04;58.62;34.51;71.99;;
73638;Laerm;53743;51.100;5.874;2022-08-19T04:18:05;57.56;36.71;70.25;;
73638;Laerm;53743;51.100;5.874;2022-08-19T04:19:08;57.47;36.13;71.76;;
73638;Laerm;53743;51.100;5.874;2022-08-19T04:20:08;37.72;34.42;44.89;;
73638;Laerm;53743;51.100;5.874;2022-08-19T04:21:21;37.20;33.83;45.17;;
73638;Laerm;53743;51.100;5.874;2022-08-19T04:22:22;53.75;34.48;69.48;;
73638;Laerm;53743;51.100;5.874;2022-08-19T04:23:23;36.77;33.91;41.23;;
73638;Laerm;53743;51.100;5.874;2022-08-19T04:24:24;56.45;33.78;71.72;;
73638;Laerm;53743;51.100;5.874;2022-08-19T04:25:25;40.63;34.18;56.55;;
73638;Laerm;53743;51.100;5.874;2022-08-19T04:26:31;54.12;35.58;69.50;;
73638;Laerm;53743;51.100;5.874;2022-08-19T04:27:35;59.22;34.32;71.80;;
73638;Laerm;53743;51.100;5.874;2022-08-19T04:28:35;59.76;34.86;73.65;;
73638;Laerm;53743;51.100;5.874;2022-08-19T04:29:37;60.22;36.56;73.02;;
73638;Laerm;53743;51.100;5.874;2022-08-19T04:30:48;61.17;33.44;75.43;;
73638;Laerm;53743;51.100;5.874;2022-08-19T04:31:49;55.47;33.97;69.57;;
73638;Laerm;53743;51.100;5.874;2022-08-19T04:32:50;60.29;35.53;74.61;;
73638;Laerm;53743;51.100;5.874;2022-08-19T04:33:51;56.96;37.31;67.71;;
73638;Laerm;53743;51.100;5.874;2022-08-19T04:34:52;42.47;33.74;67.07;;
73638;Laerm;53743;51.100;5.874;2022-08-19T04:35:53;62.10;37.37;74.57;;
73638;Laerm;53743;51.100;5.874;2022-08-19T04:36:58;54.68;34.33;69.18;;
73638;Laerm;53743;51.100;5.874;2022-08-19T04:37:59;40.75;34.27;56.32;;
73638;Laerm;53743;51.100;5.874;2022-08-19T04:39:04;58.97;35.41;70.86;;
73638;Laerm;53743;51.100;5.874;2022-08-19T04:40:07;61.91;41.40;76.88;;
73638;Laerm;53743;51.100;5.874;2022-08-19T04:41:26;56.22;35.53;72.78;;
73638;Laerm;53743;51.100;5.874;2022-08-19T04:42:59;57.39;35.69;73.38;;
73638;Laerm;53743;51.100;5.874;2022-08-19T04:44:01;61.13;34.20;75.21;;
73638;Laerm;53743;51.100;5.874;2022-08-19T04:45:05;57.24;34.84;68.84;;
73638;Laerm;53743;51.100;5.874;2022-08-19T04:46:10;36.86;33.58;50.29;;
73638;Laerm;53743;51.100;5.874;2022-08-19T04:47:11;58.76;35.19;72.91;;
73638;Laerm;53743;51.100;5.874;2022-08-19T04:48:12;62.36;37.65;74.52;;
73638;Laerm;53743;51.100;5.874;2022-08-19T04:49:15;60.24;36.68;71.68;;
73638;Laerm;53743;51.100;5.874;2022-08-19T04:50:17;55.83;35.01;70.49;;
73638;Laerm;53743;51.100;5.874;2022-08-19T04:51:19;57.37;35.19;71.23;;
73638;Laerm;53743;51.100;5.874;2022-08-19T04:52:21;64.78;45.09;77.55;;
73638;Laerm;53743;51.100;5.874;2022-08-19T04:53:21;58.70;34.09;71.72;;
73638;Laerm;53743;51.100;5.874;2022-08-19T04:54:24;43.34;33.33;59.21;;
73638;Laerm;53743;51.100;5.874;2022-08-19T04:55:25;62.32;38.79;73.28;;
73638;Laerm;53743;51.100;5.874;2022-08-19T04:56:27;55.65;33.10;70.49;;
73638;Laerm;53743;51.100;5.874;2022-08-19T04:57:28;60.59;33.87;73.47;;
73638;Laerm;53743;51.100;5.874;2022-08-19T04:58:28;63.91;35.62;75.24;;
73638;Laerm;53743;51.100;5.874;2022-08-19T04:59:29;56.49;34.05;75.69;;
73638;Laerm;53743;51.100;5.874;2022-08-19T05:00:30;60.69;37.94;77.64;;
73638;Laerm;53743;51.100;5.874;2022-08-19T05:01:33;62.16;37.22;76.88;;
73638;Laerm;53743;51.100;5.874;2022-08-19T05:02:33;61.95;36.70;75.40;;
73638;Laerm;53743;51.100;5.874;2022-08-19T05:03:34;54.25;34.59;68.02;;
73638;Laerm;53743;51.100;5.874;2022-08-19T05:04:36;59.64;35.53;72.77;;
73638;Laerm;53743;51.100;5.874;2022-08-19T05:05:41;60.69;37.93;73.90;;
73638;Laerm;53743;51.100;5.874;2022-08-19T05:06:41;63.35;38.66;76.21;;
73638;Laerm;53743;51.100;5.874;2022-08-19T05:07:43;61.06;34.05;71.54;;
73638;Laerm;53743;51.100;5.874;2022-08-19T05:08:44;58.36;34.12;71.90;;
73638;Laerm;53743;51.100;5.874;2022-08-19T05:09:45;66.09;46.83;75.35;;
73638;Laerm;53743;51.100;5.874;2022-08-19T05:10:50;61.35;37.11;80.85;;
73638;Laerm;53743;51.100;5.874;2022-08-19T05:11:51;53.88;33.13;72.19;;
73638;Laerm;53743;51.100;5.874;2022-08-19T05:12:53;63.80;41.55;75.67;;
73638;Laerm;53743;51.100;5.874;2022-08-19T05:13:54;62.17;35.23;74.55;;
73638;Laerm;53743;51.100;5.874;2022-08-19T05:14:57;63.47;33.13;75.68;;
73638;Laerm;53743;51.100;5.874;2022-08-19T05:15:59;61.67;36.16;71.80;;
73638;Laerm;53743;51.100;5.874;2022-08-19T05:17:00;61.65;34.99;75.49;;
73638;Laerm;53743;51.100;5.874;2022-08-19T05:18:01;62.00;36.53;75.40;;
73638;Laerm;53743;51.100;5.874;2022-08-19T05:19:21;64.22;36.22;75.83;;
73638;Laerm;53743;51.100;5.874;2022-08-19T05:20:40;58.58;33.92;72.51;;
73638;Laerm;53743;51.100;5.874;2022-08-19T05:22:00;63.06;39.34;82.41;;
73638;Laerm;53743;51.100;5.874;2022-08-19T05:23:20;55.14;33.46;70.19;;
73638;Laerm;53743;51.100;5.874;2022-08-19T05:24:23;55.87;35.44;71.18;;
73638;Laerm;53743;51.100;5.874;2022-08-19T05:25:23;60.34;34.46;76.11;;
73638;Laerm;53743;51.100;5.874;2022-08-19T05:26:26;53.51;33.89;68.77;;
73638;Laerm;53743;51.100;5.874;2022-08-19T05:27:26;63.81;39.49;74.56;;
73638;Laerm;53743;51.100;5.874;2022-08-19T05:28:27;60.04;34.49;75.60;;
73638;Laerm;53743;51.100;5.874;2022-08-19T05:29:30;65.38;47.60;75.02;;
73638;Laerm;53743;51.100;5.874;2022-08-19T05:30:31;39.13;33.94;49.61;;
73638;Laerm;53743;51.100;5.874;2022-08-19T05:31:36;36.63;33.45;50.74;;
73638;Laerm;53743;51.100;5.874;2022-08-19T05:32:38;61.38;33.64;70.94;;
73638;Laerm;53743;51.100;5.874;2022-08-19T05:33:39;59.70;36.56;72.56;;
73638;Laerm;53743;51.100;5.874;2022-08-19T05:34:40;55.79;34.24;67.31;;
73638;Laerm;53743;51.100;5.874;2022-08-19T05:35:40;61.89;34.51;77.48;;
73638;Laerm;53743;51.100;5.874;2022-08-19T05:36:44;54.06;33.10;67.80;;
73638;Laerm;53743;51.100;5.874;2022-08-19T05:37:45;66.32;44.78;77.33;;
73638;Laerm;53743;51.100;5.874;2022-08-19T05:38:46;61.65;38.02;75.44;;
73638;Laerm;53743;51.100;5.874;2022-08-19T05:39:48;39.15;33.91;51.43;;
73638;Laerm;53743;51.100;5.874;2022-08-19T05:40:49;61.89;41.66;71.66;;
73638;Laerm;53743;51.100;5.874;2022-08-19T05:41:56;57.39;34.93;70.90;;
73638;Laerm;53743;51.100;5.874;2022-08-19T05:42:57;54.08;34.42;67.64;;
73638;Laerm;53743;51.100;5.874;2022-08-19T05:44:04;65.23;43.54;74.59;;
73638;Laerm;53743;51.100;5.874;2022-08-19T05:45:07;62.12;36.92;76.55;;
73638;Laerm;53743;51.100;5.874;2022-08-19T05:46:18;62.05;41.34;76.95;;
73638;Laerm;53743;51.100;5.874;2022-08-19T05:47:20;63.19;45.65;75.18;;
73638;Laerm;53743;51.100;5.874;2022-08-19T05:48:21;63.43;35.58;72.27;;
73638;Laerm;53743;51.100;5.874;2022-08-19T05:49:23;62.68;37.94;74.30;;
73638;Laerm;53743;51.100;5.874;2022-08-19T05:50:25;61.74;42.10;71.47;;
73638;Laerm;53743;51.100;5.874;2022-08-19T05:51:26;64.88;39.13;73.94;;
73638;Laerm;53743;51.100;5.874;2022-08-19T05:52:27;61.92;43.22;75.59;;
73638;Laerm;53743;51.100;5.874;2022-08-19T05:53:28;63.79;41.37;77.08;;